createdAt,value
2019-03-06T00:00:03.692Z,91.28
2019-03-06T00:10:02.766Z,91.34
2019-03-06T00:20:03.036Z,91.41
2019-03-06T00:30:03.563Z,91.62
2019-03-06T00:40:03.320Z,91.63
2019-03-06T00:50:03.503Z,91.40
2019-03-06T01:00:03.993Z,91.50
2019-03-06T01:10:03.439Z,91.39
2019-03-06T01:20:02.492Z,91.46
2019-03-06T01:30:04.016Z,92.05
2019-03-06T01:40:02.436Z,92.11
2019-03-06T01:50:03.524Z,91.91
2019-03-06T02:00:04.010Z,91.79
2019-03-06T02:10:02.903Z,91.75
2019-03-06T02:20:02.954Z,92.06
2019-03-06T02:30:03.995Z,92.25
2019-03-06T02:40:02.997Z,92.23
2019-03-06T02:50:03.338Z,92.40
2019-03-06T03:00:02.965Z,92.16
2019-03-06T03:10:02.894Z,92.18
2019-03-06T03:20:03.341Z,92.43
2019-03-06T03:30:03.840Z,92.45
2019-03-06T03:40:02.766Z,92.80
2019-03-06T03:50:03.414Z,92.83
2019-03-06T04:00:03.911Z,92.65
2019-03-06T04:10:02.940Z,92.67
2019-03-06T04:20:03.458Z,92.22
2019-03-06T04:30:03.939Z,91.97
2019-03-06T04:40:03.268Z,91.61
2019-03-06T04:50:02.704Z,91.51
2019-03-06T05:00:03.498Z,91.49
2019-03-06T05:10:03.166Z,91.49
2019-03-06T05:20:03.310Z,91.15
2019-03-06T05:30:03.370Z,90.94
2019-03-06T05:40:03.043Z,90.89
2019-03-06T05:50:03.280Z,91.11
2019-03-06T06:00:03.253Z,91.04
2019-03-06T06:10:02.851Z,90.76
2019-03-06T06:20:03.039Z,89.00
2019-03-06T06:30:04.025Z,87.65
2019-03-06T06:40:02.875Z,88.07
2019-03-06T06:50:03.141Z,86.75
2019-03-06T07:00:04.157Z,85.31
2019-03-06T07:10:02.934Z,83.81
2019-03-06T07:20:02.978Z,83.50
2019-03-06T07:30:03.725Z,81.44
2019-03-06T07:40:03.158Z,79.23
2019-03-06T07:50:03.230Z,77.61
2019-03-06T08:00:04.030Z,76.92
2019-03-06T08:10:02.632Z,74.19
2019-03-06T08:20:03.089Z,73.57
2019-03-06T08:30:03.633Z,72.78
2019-03-06T08:40:02.819Z,69.95
2019-03-06T08:50:03.138Z,68.28
2019-03-06T09:00:03.656Z,69.26
2019-03-06T09:10:02.971Z,67.74
2019-03-06T09:20:03.105Z,65.37
2019-03-06T09:30:03.565Z,62.14
2019-03-06T09:40:03.221Z,60.37
2019-03-06T09:50:02.614Z,58.91
2019-03-06T10:00:03.100Z,58.66
2019-03-06T10:10:03.297Z,58.74
2019-03-06T10:20:02.820Z,57.54
2019-03-06T10:30:06.773Z,56.02
2019-03-06T10:40:02.932Z,51.71
2019-03-06T10:50:03.197Z,52.45
2019-03-06T11:00:04.166Z,50.95
2019-03-06T11:10:02.893Z,50.75
2019-03-06T11:20:03.234Z,49.74
2019-03-06T11:30:03.577Z,50.07
2019-03-06T11:40:03.233Z,50.45
2019-03-06T11:50:03.557Z,50.91
2019-03-06T12:00:03.836Z,49.79
2019-03-06T12:10:03.006Z,50.44
2019-03-06T12:20:08.658Z,50.03
2019-03-06T12:30:04.294Z,50.25
2019-03-06T12:40:11.824Z,50.82
2019-03-06T12:50:06.683Z,49.08
2019-03-06T13:00:03.840Z,48.67
2019-03-06T13:10:03.607Z,50.13
2019-03-06T13:20:03.472Z,51.23
2019-03-06T13:30:03.732Z,52.25
2019-03-06T13:40:03.840Z,50.13
2019-03-06T13:50:03.649Z,49.22
2019-03-06T14:00:03.985Z,51.59
2019-03-06T14:10:02.426Z,51.75
2019-03-06T14:20:03.185Z,51.29
2019-03-06T14:30:03.625Z,51.25
2019-03-06T14:40:10.569Z,51.83
2019-03-06T14:50:02.597Z,52.44
2019-03-06T15:00:03.509Z,52.62
2019-03-06T15:10:03.724Z,53.37
2019-03-06T15:11:02.495Z,53.71
2019-03-06T15:20:03.452Z,52.93
2019-03-06T15:30:03.613Z,55.08
2019-03-06T15:40:03.018Z,56.61
2019-03-06T15:50:02.720Z,57.92
2019-03-06T16:00:03.662Z,59.36
2019-03-06T16:10:03.477Z,59.85
2019-03-06T16:20:02.717Z,61.74
2019-03-06T16:30:04.583Z,63.21
2019-03-06T16:40:02.969Z,65.04
2019-03-06T16:50:03.327Z,65.82
2019-03-06T17:00:03.248Z,66.51
2019-03-06T17:10:03.226Z,67.35
2019-03-06T17:20:03.218Z,68.25
2019-03-06T17:30:03.379Z,68.64
2019-03-06T17:40:03.496Z,69.59
2019-03-06T17:50:02.909Z,70.16
2019-03-06T18:00:03.853Z,71.44
2019-03-06T18:10:02.438Z,73.12
2019-03-06T18:20:03.025Z,74.97
2019-03-06T18:30:04.198Z,74.60
2019-03-06T18:40:02.891Z,75.35
2019-03-06T18:50:02.663Z,76.48
2019-03-06T19:00:04.563Z,77.40
2019-03-06T19:10:02.746Z,77.56
2019-03-06T19:20:02.975Z,77.71
2019-03-06T19:30:03.740Z,77.86
2019-03-06T19:40:03.447Z,78.50
2019-03-06T19:50:03.111Z,77.94
2019-03-06T20:00:03.390Z,77.71
2019-03-06T20:10:04.921Z,76.69
2019-03-06T20:20:04.838Z,76.78
2019-03-06T20:30:03.820Z,76.35
2019-03-06T20:40:03.719Z,73.02
2019-03-06T20:50:02.677Z,70.36
2019-03-06T21:00:09.382Z,66.33
2019-03-06T21:10:03.197Z,62.78
2019-03-06T21:20:02.809Z,60.28
2019-03-06T21:30:03.074Z,59.07
2019-03-06T21:40:02.916Z,57.94
2019-03-06T21:50:03.338Z,56.57
2019-03-06T22:00:03.394Z,57.24
2019-03-06T22:10:03.299Z,56.85
2019-03-06T22:20:03.956Z,55.10
2019-03-06T22:30:03.789Z,52.64
2019-03-06T22:40:03.421Z,51.32
2019-03-06T22:50:03.891Z,51.64
2019-03-06T23:00:03.205Z,50.77
2019-03-06T23:10:03.182Z,51.95
2019-03-06T23:20:03.639Z,51.69
2019-03-06T23:30:03.360Z,50.43
2019-03-06T23:40:02.986Z,50.47
2019-03-06T23:50:03.573Z,51.14
